Time;durP1;ratioP1;P1;durP2;ratioP2;P2;SDS_P1;SDS_P2;PMS_P1;PMS_P2;Temp;Humidity;BMP_temperature;BMP_pressure;BME280_temperature;BME280_humidity;BME280_pressure;Samples;Min_cycle;Max_cycle;Signal;HPM_P1;HPM_P2
2022/04/04 00:00:12;;;;;;;4.93;1.65;;;;;;;19.24;37.15;101867.03;5012886;28;20385;-55
2022/04/04 00:02:38;;;;;;;3.17;1.52;;;;;;;19.23;37.34;101870.63;5013828;28;20134;-55
2022/04/04 00:05:04;;;;;;;2.97;1.40;;;;;;;19.21;37.57;101869.88;5013440;28;20156;-56
2022/04/04 00:07:29;;;;;;;3.70;1.70;;;;;;;19.19;37.45;101867.34;5012251;28;20145;-55
2022/04/04 00:09:55;;;;;;;4.03;1.40;;;;;;;19.19;37.51;101864.72;5013401;28;20133;-56
2022/04/04 00:12:20;;;;;;;3.38;1.40;;;;;;;19.21;37.88;101861.97;5013377;28;20060;-55
2022/04/04 00:14:51;;;;;;;3.70;1.58;;;;;;;19.22;37.58;101853.09;5012588;28;20033;-55
2022/04/04 00:17:17;;;;;;;4.15;1.65;;;;;;;19.25;37.45;101855.53;5013698;28;20033;-55
2022/04/04 00:19:42;;;;;;;3.83;1.60;;;;;;;19.25;37.56;101846.72;5013587;28;20025;-56
2022/04/04 00:22:10;;;;;;;6.57;1.80;;;;;;;19.28;37.33;101842.09;5012196;28;20026;-56
2022/04/04 00:24:36;;;;;;;4.03;1.55;;;;;;;19.30;37.47;101839.34;5013636;28;20033;-55
2022/04/04 00:27:01;;;;;;;4.05;1.50;;;;;;;19.30;37.46;101842.81;5013017;28;20022;-56
2022/04/04 00:29:27;;;;;;;4.05;1.80;;;;;;;19.30;37.19;101836.69;5012664;28;20050;-56
2022/04/04 00:31:53;;;;;;;5.10;2.15;;;;;;;19.29;37.34;101838.47;5013209;28;20519;-57
2022/04/04 00:34:21;;;;;;;6.15;1.90;;;;;;;19.27;37.00;101832.47;5012702;28;20026;-57
2022/04/04 00:36:47;;;;;;;3.65;1.55;;;;;;;19.26;37.14;101822.00;5013422;28;20022;-57
2022/04/04 00:39:19;;;;;;;4.35;1.77;;;;;;;19.25;37.36;101829.09;5012959;28;20017;-57
2022/04/04 00:41:45;;;;;;;5.10;1.80;;;;;;;19.24;37.05;101813.34;5012537;28;20029;-57
2022/04/04 00:44:10;;;;;;;4.45;1.70;;;;;;;19.23;37.03;101824.84;5011981;28;20466;-57
2022/04/04 00:46:40;;;;;;;3.95;1.73;;;;;;;19.20;37.26;101818.84;5013486;28;20021;-57
2022/04/04 00:49:06;;;;;;;4.07;1.58;;;;;;;19.19;36.83;101814.50;5012228;28;20032;-57
2022/04/04 00:51:31;;;;;;;4.53;1.92;;;;;;;19.19;37.67;101811.03;5013267;28;20022;-56
2022/04/04 00:53:57;;;;;;;3.38;1.65;;;;;;;19.19;37.46;101803.09;5012794;28;20037;-56
2022/04/04 00:56:28;;;;;;;3.65;1.60;;;;;;;19.21;37.48;101801.19;5012250;28;20030;-55
2022/04/04 00:58:54;;;;;;;4.72;2.13;;;;;;;19.23;37.64;101801.06;5012875;28;20401;-56
2022/04/04 01:01:22;;;;;;;6.18;1.63;;;;;;;19.25;37.36;101797.38;5013021;28;20024;-55
2022/04/04 01:03:50;;;;;;;4.68;1.95;;;;;;;19.25;37.24;101792.09;5012105;28;20449;-55
2022/04/04 01:06:16;;;;;;;4.30;1.98;;;;;;;19.28;37.24;101793.66;5012977;28;20029;-55
2022/04/04 01:08:44;;;;;;;3.45;1.70;;;;;;;19.30;37.16;101789.13;5012585;28;20022;-56
2022/04/04 01:11:11;;;;;;;3.92;1.90;;;;;;;19.29;37.20;101790.06;5012179;28;20477;-57
2022/04/04 01:13:39;;;;;;;3.85;2.20;;;;;;;19.29;36.96;101782.13;5012883;28;20026;-56
2022/04/04 01:16:04;;;;;;;5.22;1.90;;;;;;;19.28;36.84;101765.44;5012466;28;20022;-55
2022/04/04 01:18:30;;;;;;;5.47;2.00;;;;;;;19.29;36.59;101768.94;5012127;28;20036;-56
2022/04/04 01:20:55;;;;;;;4.73;1.90;;;;;;;19.27;36.77;101768.19;5012461;28;20307;-55
2022/04/04 01:23:24;;;;;;;5.28;2.00;;;;;;;19.27;37.15;101765.56;5012862;28;20295;-55
2022/04/04 01:25:50;;;;;;;4.38;1.92;;;;;;;19.27;37.12;101757.63;5011874;28;20084;-56
2022/04/04 01:28:16;;;;;;;5.05;2.00;;;;;;;19.29;37.17;101750.44;5012762;28;20474;-56
2022/04/04 01:30:43;;;;;;;5.43;2.00;;;;;;;19.28;37.54;101744.31;5012069;28;20072;-55
2022/04/04 01:33:08;;;;;;;4.72;2.00;;;;;;;19.30;37.37;101741.56;5012299;28;20501;-55
2022/04/04 01:35:38;;;;;;;4.65;1.95;;;;;;;19.32;37.09;101739.63;5012439;28;20022;-57
2022/04/04 01:38:04;;;;;;;5.20;2.20;;;;;;;19.33;36.86;101736.06;5011517;28;20072;-56
2022/04/04 01:40:29;;;;;;;4.13;1.88;;;;;;;19.34;36.94;101727.16;5012722;28;20113;-55
2022/04/04 01:42:55;;;;;;;3.92;2.00;;;;;;;19.33;36.95;101723.66;5012311;28;20026;-56
2022/04/04 01:48:08;;;;;;;6.10;2.30;;;;;;;19.32;36.69;101716.69;5012491;28;20029;-55
2022/04/04 01:50:33;;;;;;;3.97;1.98;;;;;;;19.34;36.67;101708.66;5012666;28;20049;-54
2022/04/04 01:55:43;;;;;;;4.55;1.90;;;;;;;19.29;36.67;101694.94;5013953;28;20045;-55
2022/04/04 01:58:08;;;;;;;4.40;2.00;;;;;;;19.29;36.70;101694.94;5015787;28;20026;-56
2022/04/04 02:00:34;;;;;;;4.10;1.90;;;;;;;19.29;36.90;101692.28;5015198;28;20274;-56
2022/04/04 02:02:59;;;;;;;3.77;1.70;;;;;;;19.29;37.19;101674.63;5015664;28;20502;-55
2022/04/04 02:05:30;;;;;;;4.40;1.90;;;;;;;19.30;36.82;101676.31;5016082;28;20508;-55
2022/04/04 02:07:56;;;;;;;4.72;1.95;;;;;;;19.33;36.98;101678.72;5015078;28;20270;-54
2022/04/04 02:10:21;;;;;;;5.10;1.95;;;;;;;19.32;36.79;101668.28;5015988;28;20058;-55
2022/04/04 02:12:46;;;;;;;4.43;2.20;;;;;;;19.34;36.90;101672.50;5014917;28;20042;-56
2022/04/04 02:15:13;;;;;;;3.35;1.83;;;;;;;19.34;36.90;101663.72;5015321;28;20041;-55
2022/04/04 02:17:41;;;;;;;4.30;1.70;;;;;;;19.34;36.46;101663.72;5015687;28;20030;-56
2022/04/04 02:20:08;;;;;;;4.50;2.08;;;;;;;19.35;36.57;101657.47;5014754;28;20329;-55
2022/04/04 02:22:33;;;;;;;4.43;1.92;;;;;;;19.35;36.46;101660.97;5015542;28;20045;-55
2022/04/04 02:24:59;;;;;;;4.90;2.03;;;;;;;19.34;36.45;101648.72;5015238;28;20465;-55
2022/04/04 02:27:24;;;;;;;4.13;1.80;;;;;;;19.32;36.38;101642.69;5014757;28;20173;-56
2022/04/04 02:29:49;;;;;;;4.27;1.70;;;;;;;19.31;36.37;101645.44;5015070;28;20492;-56
2022/04/04 02:32:15;;;;;;;4.63;1.77;;;;;;;19.31;36.92;101635.72;5015561;28;20272;-56
2022/04/04 02:34:40;;;;;;;3.58;1.73;;;;;;;19.31;37.02;101630.44;5014677;28;20290;-55
2022/04/04 02:37:05;;;;;;;4.18;1.92;;;;;;;19.34;36.74;101632.00;5015224;28;20097;-54
2022/04/04 02:39:31;;;;;;;5.93;1.90;;;;;;;19.34;37.00;101627.56;5015203;28;20366;-54
2022/04/04 02:41:56;;;;;;;4.93;1.90;;;;;;;19.33;36.63;101619.75;5014275;28;20025;-55
2022/04/04 02:44:21;;;;;;;3.70;1.70;;;;;;;19.35;36.70;101618.66;5015185;28;20375;-56
2022/04/04 02:46:46;;;;;;;3.93;1.97;;;;;;;19.36;36.46;101615.06;5015095;28;20018;-56
2022/04/04 02:49:12;;;;;;;4.30;2.03;;;;;;;19.38;36.48;101614.97;5014202;28;20358;-56
2022/04/04 02:51:37;;;;;;;4.35;2.13;;;;;;;19.37;35.99;101600.06;5015191;28;20350;-56
2022/04/04 02:54:02;;;;;;;4.22;1.85;;;;;;;19.36;36.16;101593.09;5014647;28;20049;-55
2022/04/04 02:56:30;;;;;;;4.18;2.00;;;;;;;19.36;36.03;101590.47;5014251;28;20476;-55
2022/04/04 02:58:57;;;;;;;4.07;2.15;;;;;;;19.34;36.04;101585.28;5014663;28;20117;-56
2022/04/04 03:01:23;;;;;;;5.43;1.85;;;;;;;19.32;36.45;101576.59;5014999;28;20026;-56
2022/04/04 03:03:48;;;;;;;5.10;2.15;;;;;;;19.33;36.46;101569.53;5014084;28;20068;-56
2022/04/04 03:06:14;;;;;;;3.80;1.95;;;;;;;19.32;36.81;101568.69;5014853;28;20060;-56
2022/04/04 03:08:39;;;;;;;4.57;1.90;;;;;;;19.33;36.61;101553.69;5013961;28;20067;-56
2022/04/04 03:11:05;;;;;;;4.32;1.88;;;;;;;19.33;36.60;101556.31;5013668;28;20048;-55
2022/04/04 03:13:30;;;;;;;3.65;1.80;;;;;;;19.36;36.56;101553.47;5014295;28;20042;-56
2022/04/04 03:15:55;;;;;;;4.47;1.92;;;;;;;19.35;36.18;101542.03;5014447;28;20033;-56
2022/04/04 03:18:21;;;;;;;5.78;2.05;;;;;;;19.35;36.26;101549.13;5013737;28;20160;-55
2022/04/04 03:20:46;;;;;;;4.80;2.25;;;;;;;19.35;36.36;101541.19;5014729;28;20038;-55
2022/04/04 03:23:12;;;;;;;4.60;1.90;;;;;;;19.36;36.10;101533.13;5013392;28;20037;-56
2022/04/04 03:25:37;;;;;;;3.95;1.73;;;;;;;19.35;36.18;101526.16;5014538;28;20271;-56
2022/04/04 03:28:02;;;;;;;3.63;1.88;;;;;;;19.35;35.76;101523.53;5014087;28;20469;-55
2022/04/04 03:30:29;;;;;;;3.85;1.90;;;;;;;19.34;36.11;101516.56;5013473;28;20029;-55
2022/04/04 03:32:57;;;;;;;4.15;1.88;;;;;;;19.33;36.40;101521.97;5014215;28;20036;-55
2022/04/04 03:35:23;;;;;;;4.65;2.00;;;;;;;19.34;36.53;101511.28;5014269;28;20096;-56
2022/04/04 03:37:52;;;;;;;5.75;1.90;;;;;;;19.34;36.31;101513.06;5012999;28;20507;-54
2022/04/04 03:40:19;;;;;;;4.53;1.80;;;;;;;19.34;36.33;101506.00;5014182;28;20037;-56
2022/04/04 03:42:46;;;;;;;4.18;2.08;;;;;;;19.35;36.47;101498.91;5013937;28;20030;-54
2022/04/04 03:45:12;;;;;;;4.28;1.90;;;;;;;19.34;36.18;101487.50;5012911;28;20065;-55
2022/04/04 03:47:38;;;;;;;4.32;1.73;;;;;;;19.32;36.31;101481.47;5014209;28;20029;-56
2022/04/04 03:50:05;;;;;;;4.68;1.70;;;;;;;19.36;36.32;101484.72;5013671;28;20026;-56
2022/04/04 03:52:31;;;;;;;5.50;1.85;;;;;;;19.34;36.24;101482.22;5012036;28;20034;-54
2022/04/04 03:54:59;;;;;;;4.85;1.67;;;;;;;19.34;36.09;101476.94;5013589;28;20030;-56
2022/04/04 03:57:24;;;;;;;4.40;2.10;;;;;;;19.32;36.65;101476.19;5013681;28;20377;-56
2022/04/04 03:59:52;;;;;;;4.03;1.47;;;;;;;19.32;36.61;101472.69;5012991;28;20025;-54
2022/04/04 04:02:18;;;;;;;3.88;1.40;;;;;;;19.32;37.19;101462.13;5013914;28;20267;-56
2022/04/04 04:04:44;;;;;;;3.85;1.40;;;;;;;19.33;37.08;101462.00;5013830;28;20542;-55
2022/04/04 04:07:14;;;;;;;4.35;1.73;;;;;;;19.34;36.90;101457.56;5012920;28;20033;-55
2022/04/04 04:09:39;;;;;;;4.38;1.58;;;;;;;19.36;36.81;101453.03;5013470;28;20450;-54
2022/04/04 04:12:05;;;;;;;6.35;2.22;;;;;;;19.37;36.78;101455.50;5012937;28;20100;-56
2022/04/04 04:14:31;;;;;;;4.10;1.80;;;;;;;19.36;36.29;101448.56;5012814;28;20424;-56
2022/04/04 04:16:57;;;;;;;3.65;1.70;;;;;;;19.38;36.31;101449.28;5013193;28;20026;-55
2022/04/04 04:22:09;;;;;;;4.25;1.88;;;;;;;19.37;36.52;101431.72;5013561;28;20084;-55
2022/04/04 04:24:34;;;;;;;4.67;1.90;;;;;;;19.37;36.62;101433.53;5013879;28;20018;-54
2022/04/04 04:27:00;;;;;;;3.67;1.73;;;;;;;19.36;36.71;101429.22;5012435;28;20274;-55
2022/04/04 04:29:25;;;;;;;3.03;1.60;;;;;;;19.36;36.94;101419.50;5013334;28;20099;-54
2022/04/04 04:31:51;;;;;;;4.10;1.70;;;;;;;19.35;37.04;101416.97;5013001;28;20366;-56
2022/04/04 04:34:16;;;;;;;5.75;1.85;;;;;;;19.35;36.99;101415.16;5012442;28;20038;-55
2022/04/04 04:36:42;;;;;;;3.60;1.60;;;;;;;19.38;36.93;101411.44;5013200;28;20464;-56
2022/04/04 04:39:07;;;;;;;4.00;1.80;;;;;;;19.38;36.45;101401.72;5013102;28;20311;-54
2022/04/04 04:41:33;;;;;;;4.25;1.70;;;;;;;19.39;36.58;101406.03;5012487;28;20473;-56
2022/04/04 04:44:02;;;;;;;5.47;1.80;;;;;;;19.39;36.68;101397.25;5012862;28;20022;-55
2022/04/04 04:46:31;;;;;;;5.70;1.63;;;;;;;19.39;36.42;101384.03;5013171;28;20036;-56
2022/04/04 04:48:56;;;;;;;4.05;1.60;;;;;;;19.38;36.19;101385.84;5011945;28;20022;-56
2022/04/04 04:51:21;;;;;;;3.78;1.63;;;;;;;19.36;36.63;101385.13;5013034;28;20490;-56
2022/04/04 04:53:47;;;;;;;4.95;1.90;;;;;;;19.36;36.80;101381.66;5013038;28;20057;-56
2022/04/04 04:56:12;;;;;;;4.80;1.90;;;;;;;19.36;36.80;101376.38;5012015;28;20026;-55
2022/04/04 04:58:38;;;;;;;4.43;1.90;;;;;;;19.37;37.13;101372.75;5013062;28;20438;-55
2022/04/04 05:01:03;;;;;;;3.83;1.60;;;;;;;19.37;37.00;101372.75;5012463;28;20041;-56
2022/04/04 05:03:28;;;;;;;4.27;1.63;;;;;;;19.38;37.17;101363.88;5012265;28;20064;-56
2022/04/04 05:05:54;;;;;;;4.22;1.50;;;;;;;19.39;37.32;101354.97;5012668;28;20271;-55
2022/04/04 05:08:19;;;;;;;3.50;1.45;;;;;;;19.37;37.86;101352.44;5012792;28;20026;-55
2022/04/04 05:10:45;;;;;;;4.00;1.38;;;;;;;19.39;38.12;101355.81;5011943;28;20021;-55
2022/04/04 05:13:10;;;;;;;4.00;1.42;;;;;;;19.42;38.17;101345.97;5012275;28;20038;-55
2022/04/04 05:15:36;;;;;;;2.83;1.40;;;;;;;19.44;38.34;101344.03;5012743;28;20030;-55
2022/04/04 05:18:02;;;;;;;5.00;1.70;;;;;;;19.45;38.41;101337.78;5011683;28;20029;-55
2022/04/04 05:20:28;;;;;;;3.45;1.45;;;;;;;19.46;38.57;101332.38;5012875;28;20029;-55
2022/04/04 05:22:53;;;;;;;3.00;1.20;;;;;;;19.48;38.57;101324.34;5011319;28;20180;-54
2022/04/04 05:25:19;;;;;;;3.33;1.40;;;;;;;19.49;38.28;101316.28;5012783;28;20104;-56
2022/04/04 05:27:44;;;;;;;2.60;1.20;;;;;;;19.51;38.31;101317.00;5013383;28;20164;-56
2022/04/04 05:30:10;;;;;;;4.57;1.40;;;;;;;19.53;38.36;101315.06;5012013;28;20026;-56
2022/04/04 05:32:38;;;;;;;4.65;1.63;;;;;;;19.54;38.27;101311.47;5016512;28;20033;-55
2022/04/04 05:35:08;;;;;;;4.22;1.48;;;;;;;19.55;38.29;101291.13;5016118;28;20034;-57
2022/04/04 05:37:34;;;;;;;3.53;1.60;;;;;;;19.56;38.15;101293.66;5015546;28;20048;-56
2022/04/04 05:39:59;;;;;;;4.13;1.48;;;;;;;19.57;38.03;101281.31;5016195;28;20080;-55
2022/04/04 05:42:25;;;;;;;4.57;1.80;;;;;;;19.56;37.98;101285.72;5016339;28;20025;-55
2022/04/04 05:44:50;;;;;;;3.90;1.40;;;;;;;19.59;38.04;101282.00;5015187;28;20033;-55
2022/04/04 05:47:19;;;;;;;4.20;1.75;;;;;;;19.57;38.20;101287.44;5016165;28;20278;-55
2022/04/04 05:49:45;;;;;;;4.20;1.60;;;;;;;19.56;38.28;101274.31;5016080;28;20105;-55
2022/04/04 05:52:11;;;;;;;4.55;1.77;;;;;;;19.60;37.85;101275.78;5015079;28;20068;-55
2022/04/04 05:54:53;;;;;;;4.53;1.60;;;;;;;19.60;38.03;101267.84;5016174;28;20096;-55
2022/04/04 05:57:22;;;;;;;5.35;1.50;;;;;;;19.60;38.07;101267.84;5016104;28;20048;-55
2022/04/04 05:59:47;;;;;;;4.47;1.50;;;;;;;19.61;38.42;101264.22;5014814;28;20040;-56
2022/04/04 06:02:13;;;;;;;2.83;1.10;;;;;;;19.62;38.50;101257.16;5015718;28;20453;-55
2022/04/04 06:04:38;;;;;;;3.78;1.48;;;;;;;19.62;38.66;101257.16;5016026;28;20298;-56
2022/04/04 06:07:04;;;;;;;2.88;1.10;;;;;;;19.62;38.55;101246.56;5014990;28;20478;-56
2022/04/04 06:09:29;;;;;;;4.13;1.40;;;;;;;19.63;38.45;101237.66;5015712;28;20022;-56
2022/04/04 06:11:54;;;;;;;3.23;1.40;;;;;;;19.64;38.56;101244.63;5014977;28;20038;-56
2022/04/04 06:14:19;;;;;;;3.60;1.50;;;;;;;19.67;38.93;101241.75;5014874;28;20299;-55
2022/04/04 06:16:45;;;;;;;5.05;2.00;;;;;;;19.66;37.28;101230.34;5015523;28;20300;-56
2022/04/04 06:19:10;;;;;;;5.00;1.63;;;;;;;19.69;38.10;101245.09;5014568;28;20022;-58
2022/04/04 06:21:36;;;;;;;4.35;1.48;;;;;;;19.72;38.31;101236.91;5015692;28;20497;-55
2022/04/04 06:24:02;;;;;;;4.35;1.30;;;;;;;19.74;38.35;101227.03;5015313;28;20101;-56
2022/04/04 06:26:28;;;;;;;4.35;1.42;;;;;;;19.75;38.63;101218.97;5014810;28;20528;-54
2022/04/04 06:28:54;;;;;;;4.50;1.58;;;;;;;19.77;38.25;101224.16;5015213;28;20026;-58
2022/04/04 06:31:19;;;;;;;3.97;1.40;;;;;;;19.80;38.73;101217.81;5015351;28;20374;-56
2022/04/04 06:33:45;;;;;;;3.40;1.30;;;;;;;19.80;38.80;101223.91;5014456;28;20076;-57
2022/04/04 06:36:11;;;;;;;6.30;1.65;;;;;;;19.83;38.72;101212.25;5015217;28;20418;-57
2022/04/04 06:38:36;;;;;;;4.18;1.67;;;;;;;19.82;38.70;101203.50;5015267;28;20029;-58
2022/04/04 06:41:01;;;;;;;4.45;1.70;;;;;;;19.81;37.46;101201.81;5014011;28;20033;-58
2022/04/04 06:43:27;;;;;;;4.72;1.83;;;;;;;19.81;38.49;101199.16;5015212;28;20355;-54
2022/04/04 06:45:52;;;;;;;3.97;1.40;;;;;;;19.82;38.53;101195.56;5014814;28;20041;-56
2022/04/04 06:48:17;;;;;;;3.92;2.00;;;;;;;19.82;38.54;101184.13;5014284;28;20388;-55
2022/04/04 06:50:43;;;;;;;3.85;1.27;;;;;;;19.86;39.09;101172.34;5015488;28;20034;-58
2022/04/04 06:53:08;;;;;;;5.97;1.60;;;;;;;19.89;39.19;101178.19;5014602;28;20041;-58
2022/04/04 06:55:34;;;;;;;4.82;1.40;;;;;;;19.97;38.83;101179.38;5014106;28;20378;-56
2022/04/04 06:58:00;;;;;;;3.75;1.45;;;;;;;20.07;38.77;101167.03;5014821;28;20054;-59
2022/04/04 07:00:25;;;;;;;3.55;1.60;;;;;;;20.14;38.35;101162.06;5015189;28;20017;-56
2022/04/04 07:02:51;;;;;;;5.05;1.65;;;;;;;20.19;38.51;101160.72;5013701;28;20469;-52
2022/04/04 07:05:16;;;;;;;5.45;1.60;;;;;;;20.28;38.37;101161.72;5015073;28;20033;-55
2022/04/04 07:07:42;;;;;;;4.45;1.20;;;;;;;20.35;38.23;101154.94;5014870;28;20026;-58
2022/04/04 07:10:07;;;;;;;3.95;1.42;;;;;;;20.41;38.14;101153.56;5013865;28;20037;-58
2022/04/04 07:12:34;;;;;;;6.80;1.70;;;;;;;20.45;37.98;101144.41;5014381;28;20049;-57
2022/04/04 07:14:59;;;;;;;4.80;1.48;;;;;;;20.48;37.87;101139.66;5014402;28;20026;-57
2022/04/04 07:17:24;;;;;;;5.38;1.55;;;;;;;20.52;37.77;101134.09;5013844;28;20477;-58
2022/04/04 07:19:50;;;;;;;3.42;1.20;;;;;;;20.51;38.02;101141.22;5014410;28;20075;-56
2022/04/04 07:22:16;;;;;;;4.47;1.40;;;;;;;20.52;37.90;101124.38;5013939;28;20076;-58
2022/04/04 07:24:42;;;;;;;3.63;1.20;;;;;;;20.52;38.29;101105.00;5014544;28;20113;-57
2022/04/04 07:27:07;;;;;;;8.13;1.52;;;;;;;20.55;38.19;101102.91;5014150;28;20026;-57
2022/04/04 07:29:32;;;;;;;4.30;1.40;;;;;;;20.58;38.03;101096.50;5013454;28;20170;-57
2022/04/04 07:31:58;;;;;;;5.50;1.60;;;;;;;20.60;38.04;101083.97;5014068;28;20025;-57
2022/04/04 07:34:24;;;;;;;4.60;1.40;;;;;;;20.63;38.20;101094.28;5014350;28;20112;-57
2022/04/04 07:36:49;;;;;;;3.15;1.30;;;;;;;20.65;38.17;101090.56;5013250;28;20550;-56
2022/04/04 07:39:17;;;;;;;5.43;1.63;;;;;;;20.67;38.28;101092.25;5014311;28;20029;-57
2022/04/04 07:41:43;;;;;;;3.60;1.30;;;;;;;20.68;38.48;101089.47;5014108;28;20259;-56
2022/04/04 07:44:08;;;;;;;3.83;1.40;;;;;;;20.71;38.13;101078.63;5013024;28;20474;-56
2022/04/04 07:46:34;;;;;;;6.45;1.80;;;;;;;20.72;38.33;101080.28;5014119;28;20128;-55
2022/04/04 07:48:59;;;;;;;7.10;1.50;;;;;;;20.73;37.50;101078.44;5013777;28;20484;-54
2022/04/04 07:51:25;;;;;;;3.78;1.67;;;;;;;20.73;37.59;101073.16;5013253;28;20612;-56
2022/04/04 07:53:50;;;;;;;4.78;1.75;;;;;;;20.73;37.06;101067.84;5013064;28;20661;-55
2022/04/04 07:56:15;;;;;;;4.53;1.60;;;;;;;20.72;36.54;101071.50;5013949;28;20381;-58
2022/04/04 07:58:41;;;;;;;4.75;1.73;;;;;;;20.69;37.17;101062.00;5013214;28;20366;-53
2022/04/04 08:01:07;;;;;;;4.13;1.60;;;;;;;20.68;37.44;101054.19;5013615;28;20026;-53
2022/04/04 08:03:32;;;;;;;2.95;1.35;;;;;;;20.69;37.50;101045.28;5013785;28;20100;-55
2022/04/04 08:05:57;;;;;;;7.43;1.52;;;;;;;20.73;37.79;101042.22;5012989;28;20116;-56
2022/04/04 08:08:22;;;;;;;6.15;1.50;;;;;;;20.78;38.10;101033.88;5013863;28;20026;-54
2022/04/04 08:10:48;;;;;;;4.43;1.30;;;;;;;20.83;38.36;101029.00;5013724;28;20113;-54
2022/04/04 08:13:13;;;;;;;3.67;1.42;;;;;;;20.86;37.98;101022.59;5012836;28;20129;-56
2022/04/04 08:15:39;;;;;;;4.68;1.60;;;;;;;20.84;38.10;101030.69;5013723;28;20363;-53
2022/04/04 08:18:04;;;;;;;4.15;1.70;;;;;;;20.84;38.21;101025.38;5013512;28;20041;-52
2022/04/04 08:20:31;;;;;;;4.22;1.48;;;;;;;20.84;37.97;101012.97;5013052;28;20101;-52
2022/04/04 08:22:59;;;;;;;4.28;1.52;;;;;;;20.84;38.06;101014.78;5013349;28;20496;-51
2022/04/04 08:25:25;;;;;;;4.68;1.65;;;;;;;20.83;37.77;101013.94;5013590;28;20460;-52
2022/04/04 08:27:50;;;;;;;5.28;1.67;;;;;;;20.82;38.07;101009.63;5012436;28;20104;-54
2022/04/04 08:30:17;;;;;;;3.20;1.23;;;;;;;20.81;38.05;101002.66;5013328;28;20030;-50
2022/04/04 08:32:43;;;;;;;3.10;1.30;;;;;;;20.84;38.26;100996.25;5012742;28;20030;-50
2022/04/04 08:35:12;;;;;;;3.85;1.40;;;;;;;20.87;38.25;100985.38;5013123;28;20034;-50
2022/04/04 08:37:39;;;;;;;4.05;1.23;;;;;;;20.94;38.36;100996.25;5013351;28;20105;-54
2022/04/04 08:40:07;;;;;;;3.58;1.50;;;;;;;20.99;38.12;100978.09;5012217;28;20083;-48
2022/04/04 08:42:33;;;;;;;3.75;1.38;;;;;;;20.99;37.97;100975.47;5012944;28;20552;-50
2022/04/04 08:45:00;;;;;;;4.20;1.20;;;;;;;20.96;37.65;100973.91;5012731;28;20077;-49
2022/04/04 08:47:27;;;;;;;4.88;1.48;;;;;;;20.93;37.69;100982.13;5012533;28;20030;-49
2022/04/04 08:49:54;;;;;;;6.35;1.48;;;;;;;20.93;37.62;100974.19;5012900;28;20030;-49
2022/04/04 08:52:20;;;;;;;5.03;1.42;;;;;;;20.91;37.78;100967.38;5013049;28;20037;-49
2022/04/04 08:54:46;;;;;;;3.10;1.08;;;;;;;20.93;38.10;100965.41;5012307;28;20133;-51
2022/04/04 08:57:11;;;;;;;4.95;2.10;;;;;;;20.93;38.26;100954.81;5012660;28;20028;-54
2022/04/04 08:59:38;;;;;;;5.53;1.60;;;;;;;20.93;38.08;100957.47;5012915;28;20050;-53
2022/04/04 09:02:03;;;;;;;5.55;1.27;;;;;;;20.93;37.70;100941.59;5011856;28;20272;-53
2022/04/04 09:04:32;;;;;;;5.35;2.15;;;;;;;20.97;37.53;100935.03;5013239;28;20018;-53
2022/04/04 09:06:57;;;;;;;5.20;1.38;;;;;;;21.03;37.22;100945.06;5016254;28;20382;-51
2022/04/04 09:09:36;;;;;;;8.95;1.67;;;;;;;21.04;36.66;100933.47;5016276;28;20029;-54
2022/04/04 09:12:10;;;;;;;5.22;1.50;;;;;;;21.04;36.88;100938.78;5016554;28;20465;-54
2022/04/04 09:14:46;;;;;;;4.70;1.50;;;;;;;21.04;37.01;100940.59;5017054;28;20034;-52
2022/04/04 09:17:13;;;;;;;5.22;1.67;;;;;;;21.05;37.14;100927.22;5016403;28;20053;-51
2022/04/04 09:19:39;;;;;;;4.85;1.30;;;;;;;21.01;37.57;100929.31;5017033;28;20033;-51
2022/04/04 09:22:12;;;;;;;4.20;1.50;;;;;;;20.99;37.63;100925.13;5015903;28;20064;-56
2022/04/04 09:24:57;;;;;;;4.37;1.40;;;;;;;20.99;37.53;100914.53;5016745;28;20026;-54
2022/04/04 09:27:30;;;;;;;4.32;1.30;;;;;;;21.00;37.34;100917.03;5016607;28;20363;-54
2022/04/04 09:30:05;;;;;;;5.57;1.60;;;;;;;20.99;37.28;100909.22;5015698;28;20045;-55
2022/04/04 09:32:42;;;;;;;7.22;1.52;;;;;;;21.00;37.28;100916.22;5016631;28;20026;-51
2022/04/04 09:35:15;;;;;;;7.10;1.70;;;;;;;20.96;37.31;100898.91;5016408;28;20025;-53
2022/04/04 09:37:43;;;;;;;4.68;1.50;;;;;;;20.96;37.27;100910.34;5016145;28;20050;-55
2022/04/04 09:40:20;;;;;;;5.38;1.50;;;;;;;20.96;37.44;100894.44;5016341;28;20029;-49
2022/04/04 09:42:54;;;;;;;6.15;1.40;;;;;;;20.98;37.57;100911.06;5016503;28;20026;-53
2022/04/04 09:45:24;;;;;;;8.98;1.85;;;;;;;21.01;37.46;100896.66;5015974;28;20044;-51
2022/04/04 09:48:07;;;;;;;4.68;1.65;;;;;;;21.06;37.64;100901.53;5016301;28;20034;-54
2022/04/04 09:50:35;;;;;;;5.95;1.83;;;;;;;21.07;37.65;100895.28;5015684;28;20105;-50
2022/04/04 09:53:04;;;;;;;5.30;1.40;;;;;;;21.04;37.58;100895.56;5014870;28;20072;-54
2022/04/04 09:55:33;;;;;;;5.25;1.65;;;;;;;21.02;37.85;100882.44;5016049;28;20112;-50
2022/04/04 09:58:05;;;;;;;5.93;1.70;;;;;;;21.00;37.58;100882.59;5015113;28;20057;-51
2022/04/04 10:00:31;;;;;;;4.60;1.60;;;;;;;21.00;38.00;100892.38;5016358;28;20060;-55
2022/04/04 10:02:58;;;;;;;5.47;1.33;;;;;;;20.98;37.90;100881.91;5016077;28;20390;-54
2022/04/04 10:05:25;;;;;;;3.92;1.30;;;;;;;20.97;37.93;100890.00;5015456;28;20033;-54
2022/04/04 10:07:56;;;;;;;5.88;1.52;;;;;;;20.98;37.82;100881.91;5015985;28;20026;-50
2022/04/04 10:10:30;;;;;;;3.92;1.30;;;;;;;20.97;37.88;100880.22;5016069;28;20029;-51
2022/04/04 10:12:58;;;;;;;4.35;1.20;;;;;;;20.99;37.96;100872.97;5014683;28;20123;-53
2022/04/04 10:15:26;;;;;;;5.80;1.40;;;;;;;20.99;37.93;100867.66;5015890;28;20030;-54
2022/04/04 10:17:53;;;;;;;3.97;1.33;;;;;;;20.99;37.95;100862.38;5015028;28;20624;-53
2022/04/04 10:20:20;;;;;;;5.38;1.50;;;;;;;20.98;37.84;100865.16;5014968;28;20053;-50
2022/04/04 10:22:49;;;;;;;5.55;1.40;;;;;;;20.97;38.04;100864.34;5015629;28;20029;-51
2022/04/04 10:25:17;;;;;;;4.43;1.35;;;;;;;20.97;38.38;100864.34;5014873;28;20032;-54
2022/04/04 10:27:47;;;;;;;3.95;1.70;;;;;;;20.97;37.79;100866.97;5015783;28;20030;-51
2022/04/04 10:30:16;;;;;;;4.22;1.50;;;;;;;20.93;38.35;100862.09;5015216;28;20385;-53
2022/04/04 10:32:53;;;;;;;5.93;1.48;;;;;;;20.88;38.09;100859.06;5014800;28;20026;-49
2022/04/04 10:35:24;;;;;;;5.13;1.40;;;;;;;20.89;38.05;100850.16;5015347;28;20397;-50
2022/04/04 10:37:50;;;;;;;3.90;1.38;;;;;;;20.90;37.91;100862.38;5014988;28;20533;-53
2022/04/04 10:40:21;;;;;;;4.60;1.50;;;;;;;20.88;38.38;100859.88;5014747;28;20057;-51
2022/04/04 10:43:00;;;;;;;5.15;1.20;;;;;;;20.84;38.53;100863.81;5015391;28;20026;-51
2022/04/04 10:45:27;;;;;;;4.80;1.40;;;;;;;20.85;38.58;100860.16;5015278;28;20377;-54
2022/04/04 10:48:03;;;;;;;4.50;1.30;;;;;;;20.81;38.67;100856.97;5014083;28;20026;-53
2022/04/04 10:50:33;;;;;;;5.53;1.80;;;;;;;20.79;37.82;100864.25;5015340;28;20040;-53
2022/04/04 10:53:08;;;;;;;4.10;1.65;;;;;;;20.82;38.02;100850.72;5015084;28;20030;-54
2022/04/04 10:55:36;;;;;;;5.03;1.67;;;;;;;20.84;38.19;100853.22;5014554;28;20049;-51
2022/04/04 10:58:14;;;;;;;5.40;1.65;;;;;;;20.86;38.51;100850.44;5015196;28;20072;-54
2022/04/04 11:01:14;;;;;;;6.18;1.50;;;;;;;20.82;38.80;100849.84;5015451;28;20034;-55
2022/04/04 11:03:52;;;;;;;4.93;1.52;;;;;;;20.79;38.72;100852.78;5015555;28;20030;-55
2022/04/04 11:09:26;;;;;;;5.97;1.60;;;;;;;20.71;39.16;100826.19;5012100;28;20029;-52
2022/04/04 11:12:13;;;;;;;3.88;1.60;;;;;;;20.70;39.06;100833.28;5012038;28;20050;-54
2022/04/04 11:14:42;;;;;;;3.42;1.40;;;;;;;20.67;39.18;100830.94;5012912;28;20052;-54
2022/04/04 11:17:23;;;;;;;4.05;1.25;;;;;;;20.67;39.29;100824.81;5014263;28;20030;-52
2022/04/04 11:20:02;;;;;;;5.57;1.63;;;;;;;20.61;39.15;100821.69;5014343;28;20029;-53
2022/04/04 11:22:28;;;;;;;7.82;1.85;;;;;;;20.58;39.36;100811.38;5013806;28;20037;-50
2022/04/04 11:25:03;;;;;;;4.97;1.63;;;;;;;20.55;39.33;100818.78;5014297;28;20080;-49
2022/04/04 11:27:29;;;;;;;2.97;1.40;;;;;;;20.54;39.14;100804.72;5014064;28;20172;-48
2022/04/04 11:29:54;;;;;;;6.10;1.88;;;;;;;20.53;38.98;100810.16;5013033;28;20030;-51
2022/04/04 11:32:33;;;;;;;3.30;1.20;;;;;;;20.53;39.23;100810.97;5014358;28;20037;-50
2022/04/04 11:35:01;;;;;;;3.80;1.40;;;;;;;20.53;39.25;100816.28;5013875;28;20048;-50